sensor_id;sensor_type;location;lat;lon;timestamp;pressure;altitude;pressure_sealevel;temperature;humidity
7337;BME280;54510;42.016;23.098;2023-02-26T00:01:26;-21559.81;;;15.49;60.01
7337;BME280;54510;42.016;23.098;2023-02-26T00:03:54;-21554.16;;;15.28;59.99
7337;BME280;54510;42.016;23.098;2023-02-26T00:06:21;-21554.72;;;15.30;59.44
7337;BME280;54510;42.016;23.098;2023-02-26T00:08:47;-21558.31;;;15.43;58.91
7337;BME280;54510;42.016;23.098;2023-02-26T00:11:13;-21561.88;;;15.57;57.73
7337;BME280;54510;42.016;23.098;2023-02-26T00:13:40;-21558.03;;;15.42;57.38
7337;BME280;54510;42.016;23.098;2023-02-26T00:18:40;-21558.16;;;15.43;57.02
7337;BME280;54510;42.016;23.098;2023-02-26T00:21:07;-21559.00;;;15.46;56.94
7337;BME280;54510;42.016;23.098;2023-02-26T00:23:33;-21562.31;;;15.58;56.81
7337;BME280;54510;42.016;23.098;2023-02-26T00:25:59;-21555.97;;;15.35;57.71
7337;BME280;54510;42.016;23.098;2023-02-26T00:28:24;-21555.69;;;15.34;58.08
7337;BME280;54510;42.016;23.098;2023-02-26T00:30:50;-21557.47;;;15.40;57.64
7337;BME280;54510;42.016;23.098;2023-02-26T00:33:16;-21557.75;;;15.41;57.95
7337;BME280;54510;42.016;23.098;2023-02-26T00:35:41;-21554.84;;;15.31;58.49
7337;BME280;54510;42.016;23.098;2023-02-26T00:38:11;-21558.03;;;15.42;58.13
7337;BME280;54510;42.016;23.098;2023-02-26T00:43:05;-21554.56;;;15.30;58.06
7337;BME280;54510;42.016;23.098;2023-02-26T00:45:32;-21557.19;;;15.39;57.90
7337;BME280;54510;42.016;23.098;2023-02-26T00:48:19;-21553.88;;;15.27;57.88
7337;BME280;54510;42.016;23.098;2023-02-26T00:50:58;-21552.91;;;15.24;58.45
7337;BME280;54510;42.016;23.098;2023-02-26T00:53:30;-21552.78;;;15.23;58.47
7337;BME280;54510;42.016;23.098;2023-02-26T00:55:58;-21556.91;;;15.38;57.95
7337;BME280;54510;42.016;23.098;2023-02-26T00:58:23;-21555.00;;;15.31;57.45
7337;BME280;54510;42.016;23.098;2023-02-26T01:00:49;-21558.56;;;15.45;57.03
7337;BME280;54510;42.016;23.098;2023-02-26T01:03:14;-21560.94;;;15.53;56.94
7337;BME280;54510;42.016;23.098;2023-02-26T01:05:40;-21561.75;;;15.56;56.80
7337;BME280;54510;42.016;23.098;2023-02-26T01:08:16;-21561.19;;;15.54;56.73
7337;BME280;54510;42.016;23.098;2023-02-26T01:10:44;-21555.97;;;15.35;57.12
7337;BME280;54510;42.016;23.098;2023-02-26T01:13:09;-21555.41;;;15.33;57.30
7337;BME280;54510;42.016;23.098;2023-02-26T01:15:36;-21552.91;;;15.24;57.44
7337;BME280;54510;42.016;23.098;2023-02-26T01:18:15;-21551.81;;;15.20;57.54
7337;BME280;54510;42.016;23.098;2023-02-26T01:20:48;-21556.09;;;15.35;57.44
7337;BME280;54510;42.016;23.098;2023-02-26T01:23:18;-21556.50;;;15.37;57.42
7337;BME280;54510;42.016;23.098;2023-02-26T01:26:09;-21556.22;;;15.36;57.61
7337;BME280;54510;42.016;23.098;2023-02-26T01:28:37;-21550.72;;;15.16;58.29
7337;BME280;54510;42.016;23.098;2023-02-26T01:31:04;-21555.53;;;15.33;57.99
7337;BME280;54510;42.016;23.098;2023-02-26T01:33:59;-21554.72;;;15.30;57.99
7337;BME280;54510;42.016;23.098;2023-02-26T01:36:31;-21553.59;;;15.26;58.23
7337;BME280;54510;42.016;23.098;2023-02-26T01:39:24;-21552.50;;;15.22;57.90
7337;BME280;54510;42.016;23.098;2023-02-26T01:41:55;-21548.63;;;15.08;58.16
7337;BME280;54510;42.016;23.098;2023-02-26T01:44:25;-21548.09;;;15.06;58.07
7337;BME280;54510;42.016;23.098;2023-02-26T01:49:19;-21549.19;;;15.10;57.32
7337;BME280;54510;42.016;23.098;2023-02-26T01:51:55;-21552.50;;;15.22;57.13
7337;BME280;54510;42.016;23.098;2023-02-26T01:54:28;-21549.06;;;15.10;57.61
7337;BME280;54510;42.016;23.098;2023-02-26T01:56:58;-21551.41;;;15.18;57.07
7337;BME280;54510;42.016;23.098;2023-02-26T01:59:25;-21551.94;;;15.20;56.76
7337;BME280;54510;42.016;23.098;2023-02-26T02:01:53;-21547.53;;;15.04;58.18
7337;BME280;54510;42.016;23.098;2023-02-26T02:04:21;-21545.19;;;14.95;58.47
7337;BME280;54510;42.016;23.098;2023-02-26T02:06:49;-21548.38;;;15.07;58.29
7337;BME280;54510;42.016;23.098;2023-02-26T02:09:14;-21549.47;;;15.11;58.52
7337;BME280;54510;42.016;23.098;2023-02-26T02:11:57;-21547.94;;;15.06;59.27
7337;BME280;54510;42.016;23.098;2023-02-26T02:14:51;-21543.25;;;14.88;60.40
7337;BME280;54510;42.016;23.098;2023-02-26T02:17:20;-21545.88;;;14.98;60.29
7337;BME280;54510;42.016;23.098;2023-02-26T02:28:34;-21549.19;;;15.10;60.22
7337;BME280;54510;42.016;23.098;2023-02-26T02:36:54;-21548.63;;;15.08;60.92
7337;BME280;54510;42.016;23.098;2023-02-26T02:39:27;-21549.59;;;15.12;60.77
7337;BME280;54510;42.016;23.098;2023-02-26T02:42:06;-21551.13;;;15.17;60.70
7337;BME280;54510;42.016;23.098;2023-02-26T02:44:36;-21549.75;;;15.12;60.84
7337;BME280;54510;42.016;23.098;2023-02-26T02:47:05;-21546.72;;;15.01;60.83
7337;BME280;54510;42.016;23.098;2023-02-26T02:49:40;-21545.03;;;14.95;61.06
7337;BME280;54510;42.016;23.098;2023-02-26T02:52:13;-21547.94;;;15.06;60.90
7337;BME280;54510;42.016;23.098;2023-02-26T02:54:55;-21551.25;;;15.18;60.54
7337;BME280;54510;42.016;23.098;2023-02-26T02:57:36;-21552.78;;;15.23;60.44
7337;BME280;54510;42.016;23.098;2023-02-26T03:00:07;-21546.16;;;14.99;60.45
7337;BME280;54510;42.016;23.098;2023-02-26T03:02:52;-21550.31;;;15.14;60.37
7337;BME280;54510;42.016;23.098;2023-02-26T03:05:21;-21546.84;;;15.01;61.17
7337;BME280;54510;42.016;23.098;2023-02-26T03:07:55;-21546.16;;;14.99;61.69
7337;BME280;54510;42.016;23.098;2023-02-26T03:10:22;-21545.03;;;14.95;62.07
7337;BME280;54510;42.016;23.098;2023-02-26T03:12:47;-21545.59;;;14.97;62.11
7337;BME280;54510;42.016;23.098;2023-02-26T03:15:14;-21544.22;;;14.92;62.07
7337;BME280;54510;42.016;23.098;2023-02-26T03:17:59;-21543.41;;;14.89;62.14
7337;BME280;54510;42.016;23.098;2023-02-26T03:20:36;-21546.44;;;15.00;61.90
7337;BME280;54510;42.016;23.098;2023-02-26T03:25:34;-21536.75;;;14.65;62.78
7337;BME280;54510;42.016;23.098;2023-02-26T03:28:22;-21545.88;;;14.98;62.23
7337;BME280;54510;42.016;23.098;2023-02-26T03:31:14;-21540.06;;;14.77;62.28
7337;BME280;54510;42.016;23.098;2023-02-26T03:34:07;-21544.63;;;14.93;62.34
7337;BME280;54510;42.016;23.098;2023-02-26T03:36:47;-21540.78;;;14.79;62.63
7337;BME280;54510;42.016;23.098;2023-02-26T03:42:01;-21546.56;;;15.00;62.19
7337;BME280;54510;42.016;23.098;2023-02-26T03:44:32;-21543.25;;;14.88;62.36
7337;BME280;54510;42.016;23.098;2023-02-26T03:47:05;-21542.97;;;14.87;62.46
7337;BME280;54510;42.016;23.098;2023-02-26T03:49:36;-21539.81;;;14.76;62.73
7337;BME280;54510;42.016;23.098;2023-02-26T03:52:04;-21541.47;;;14.82;62.95
7337;BME280;54510;42.016;23.098;2023-02-26T03:54:52;-21538.97;;;14.73;63.16
7337;BME280;54510;42.016;23.098;2023-02-26T03:57:19;-21540.06;;;14.77;62.80
7337;BME280;54510;42.016;23.098;2023-02-26T03:59:44;-21539.53;;;14.75;62.60
7337;BME280;54510;42.016;23.098;2023-02-26T04:02:15;-21534.69;;;14.57;62.78
7337;BME280;54510;42.016;23.098;2023-02-26T04:04:55;-21536.34;;;14.63;63.00
7337;BME280;54510;42.016;23.098;2023-02-26T04:07:21;-21536.22;;;14.62;62.55
7337;BME280;54510;42.016;23.098;2023-02-26T04:09:49;-21536.75;;;14.65;62.38
7337;BME280;54510;42.016;23.098;2023-02-26T04:12:22;-21541.59;;;14.82;61.87
7337;BME280;54510;42.016;23.098;2023-02-26T04:14:48;-21536.75;;;14.65;62.40
7337;BME280;54510;42.016;23.098;2023-02-26T04:17:14;-21541.72;;;14.83;61.96
7337;BME280;54510;42.016;23.098;2023-02-26T04:19:40;-21538.28;;;14.70;62.10
7337;BME280;54510;42.016;23.098;2023-02-26T04:22:05;-21544.09;;;14.91;61.53
7337;BME280;54510;42.016;23.098;2023-02-26T04:24:31;-21536.06;;;14.62;62.13
7337;BME280;54510;42.016;23.098;2023-02-26T04:26:56;-21537.59;;;14.68;62.01
7337;BME280;54510;42.016;23.098;2023-02-26T04:29:21;-21534.84;;;14.57;62.53
7337;BME280;54510;42.016;23.098;2023-02-26T04:31:47;-21534.69;;;14.57;62.21
7337;BME280;54510;42.016;23.098;2023-02-26T04:34:12;-21536.50;;;14.63;62.19
7337;BME280;54510;42.016;23.098;2023-02-26T04:36:38;-21533.44;;;14.52;62.06
7337;BME280;54510;42.016;23.098;2023-02-26T04:39:03;-21533.59;;;14.53;61.82
7337;BME280;54510;42.016;23.098;2023-02-26T04:41:29;-21535.38;;;14.59;61.89
7337;BME280;54510;42.016;23.098;2023-02-26T04:43:54;-21538.00;;;14.69;61.88
7337;BME280;54510;42.016;23.098;2023-02-26T04:46:20;-21536.63;;;14.64;62.42
7337;BME280;54510;42.016;23.098;2023-02-26T04:48:45;-21537.31;;;14.67;62.35
7337;BME280;54510;42.016;23.098;2023-02-26T04:51:11;-21536.63;;;14.64;62.32
7337;BME280;54510;42.016;23.098;2023-02-26T04:53:36;-21539.13;;;14.73;62.31
7337;BME280;54510;42.016;23.098;2023-02-26T04:56:02;-21533.59;;;14.53;62.93
7337;BME280;54510;42.016;23.098;2023-02-26T04:58:27;-21536.75;;;14.65;62.42
7337;BME280;54510;42.016;23.098;2023-02-26T05:00:53;-21539.25;;;14.74;62.03
7337;BME280;54510;42.016;23.098;2023-02-26T05:03:20;-21532.63;;;14.49;62.70
7337;BME280;54510;42.016;23.098;2023-02-26T05:05:46;-21533.59;;;14.53;62.56
7337;BME280;54510;42.016;23.098;2023-02-26T05:08:12;-21538.28;;;14.70;61.65
7337;BME280;54510;42.016;23.098;2023-02-26T05:10:38;-21534.56;;;14.56;62.24
7337;BME280;54510;42.016;23.098;2023-02-26T05:13:03;-21535.53;;;14.60;61.97
7337;BME280;54510;42.016;23.098;2023-02-26T05:15:29;-21534.56;;;14.56;61.83
7337;BME280;54510;42.016;23.098;2023-02-26T05:17:55;-21537.72;;;14.68;61.34
7337;BME280;54510;42.016;23.098;2023-02-26T05:20:20;-21537.59;;;14.68;61.52
7337;BME280;54510;42.016;23.098;2023-02-26T05:22:46;-21535.94;;;14.61;61.54
7337;BME280;54510;42.016;23.098;2023-02-26T05:25:11;-21530.69;;;14.42;62.20
7337;BME280;54510;42.016;23.098;2023-02-26T05:27:38;-21532.63;;;14.49;62.02
7337;BME280;54510;42.016;23.098;2023-02-26T05:30:05;-21536.06;;;14.62;61.70
7337;BME280;54510;42.016;23.098;2023-02-26T05:32:31;-21534.97;;;14.58;61.80
7337;BME280;54510;42.016;23.098;2023-02-26T05:34:57;-21533.31;;;14.52;62.11
7337;BME280;54510;42.016;23.098;2023-02-26T05:37:22;-21529.84;;;14.39;62.31
7337;BME280;54510;42.016;23.098;2023-02-26T05:39:48;-21533.72;;;14.53;61.93
7337;BME280;54510;42.016;23.098;2023-02-26T05:42:13;-21535.66;;;14.60;61.67
7337;BME280;54510;42.016;23.098;2023-02-26T05:44:39;-21536.91;;;14.65;61.45
7337;BME280;54510;42.016;23.098;2023-02-26T05:47:04;-21535.66;;;14.60;61.19
7337;BME280;54510;42.016;23.098;2023-02-26T05:49:30;-21537.03;;;14.66;60.13
7337;BME280;54510;42.016;23.098;2023-02-26T05:51:58;-21541.88;;;14.83;59.21
7337;BME280;54510;42.016;23.098;2023-02-26T05:54:24;-21540.22;;;14.77;59.38
7337;BME280;54510;42.016;23.098;2023-02-26T05:56:50;-21540.06;;;14.77;59.26
7337;BME280;54510;42.016;23.098;2023-02-26T05:59:16;-21545.19;;;14.95;58.77
7337;BME280;54510;42.016;23.098;2023-02-26T06:01:41;-21543.13;;;14.88;58.17
7337;BME280;54510;42.016;23.098;2023-02-26T06:04:07;-21542.97;;;14.87;57.96
7337;BME280;54510;42.016;23.098;2023-02-26T06:06:33;-21546.97;;;15.02;57.52
7337;BME280;54510;42.016;23.098;2023-02-26T06:08:59;-21544.63;;;14.93;58.14
7337;BME280;54510;42.016;23.098;2023-02-26T06:11:27;-21548.63;;;15.08;57.48
7337;BME280;54510;42.016;23.098;2023-02-26T06:13:53;-21552.38;;;15.22;56.90
7337;BME280;54510;42.016;23.098;2023-02-26T06:16:19;-21550.72;;;15.16;56.90
7337;BME280;54510;42.016;23.098;2023-02-26T06:18:45;-21549.19;;;15.10;57.19
7337;BME280;54510;42.016;23.098;2023-02-26T06:21:11;-21554.84;;;15.31;56.36
7337;BME280;54510;42.016;23.098;2023-02-26T06:23:36;-21553.88;;;15.27;56.25
7337;BME280;54510;42.016;23.098;2023-02-26T06:26:02;-21550.72;;;15.16;55.68
7337;BME280;54510;42.016;23.098;2023-02-26T06:28:28;-21554.16;;;15.28;54.66
7337;BME280;54510;42.016;23.098;2023-02-26T06:30:54;-21559.41;;;15.48;54.11
7337;BME280;54510;42.016;23.098;2023-02-26T06:33:20;-21558.72;;;15.45;53.60
7337;BME280;54510;42.016;23.098;2023-02-26T06:35:45;-21558.44;;;15.44;52.90
7337;BME280;54510;42.016;23.098;2023-02-26T06:38:11;-21563.41;;;15.62;52.70
7337;BME280;54510;42.016;23.098;2023-02-26T06:40:36;-21566.59;;;15.74;52.45
7337;BME280;54510;42.016;23.098;2023-02-26T06:43:02;-21567.69;;;15.78;51.97
7337;BME280;54510;42.016;23.098;2023-02-26T06:45:28;-21565.88;;;15.71;52.23
7337;BME280;54510;42.016;23.098;2023-02-26T06:47:53;-21570.44;;;15.88;52.08
7337;BME280;54510;42.016;23.098;2023-02-26T06:50:19;-21568.50;;;15.81;52.93
7337;BME280;54510;42.016;23.098;2023-02-26T06:52:44;-21569.19;;;15.84;53.49
7337;BME280;54510;42.016;23.098;2023-02-26T06:55:10;-21562.59;;;15.59;54.50
7337;BME280;54510;42.016;23.098;2023-02-26T06:57:35;-21567.13;;;15.76;54.23
7337;BME280;54510;42.016;23.098;2023-02-26T07:00:02;-21571.00;;;15.90;54.42
7337;BME280;54510;42.016;23.098;2023-02-26T07:02:28;-21570.44;;;15.88;53.97
7337;BME280;54510;42.016;23.098;2023-02-26T07:04:53;-21569.88;;;15.86;54.53
7337;BME280;54510;42.016;23.098;2023-02-26T07:07:19;-21574.03;;;16.01;54.33
7337;BME280;54510;42.016;23.098;2023-02-26T07:09:44;-21571.69;;;15.93;54.61
7337;BME280;54510;42.016;23.098;2023-02-26T07:12:10;-21571.28;;;15.91;54.83
7337;BME280;54510;42.016;23.098;2023-02-26T07:14:35;-21572.66;;;15.96;55.17
7337;BME280;54510;42.016;23.098;2023-02-26T07:17:01;-21574.59;;;16.03;54.88
7337;BME280;54510;42.016;23.098;2023-02-26T07:19:26;-21577.88;;;16.15;54.62
7337;BME280;54510;42.016;23.098;2023-02-26T07:21:52;-21573.88;;;16.01;54.58
7337;BME280;54510;42.016;23.098;2023-02-26T07:24:20;-21573.47;;;15.99;55.13
7337;BME280;54510;42.016;23.098;2023-02-26T07:26:45;-21580.66;;;16.26;55.01
7337;BME280;54510;42.016;23.098;2023-02-26T07:29:10;-21581.06;;;16.27;55.07
7337;BME280;54510;42.016;23.098;2023-02-26T07:31:36;-21577.63;;;16.14;55.08
7337;BME280;54510;42.016;23.098;2023-02-26T07:34:01;-21584.91;;;16.41;54.36
7337;BME280;54510;42.016;23.098;2023-02-26T07:36:27;-21588.38;;;16.54;55.55
7337;BME280;54510;42.016;23.098;2023-02-26T07:38:53;-21588.09;;;16.53;54.85
7337;BME280;54510;42.016;23.098;2023-02-26T07:41:18;-21588.63;;;16.55;54.77
7337;BME280;54510;42.016;23.098;2023-02-26T07:43:43;-21592.50;;;16.69;54.98
7337;BME280;54510;42.016;23.098;2023-02-26T07:46:09;-21591.53;;;16.66;53.97
7337;BME280;54510;42.016;23.098;2023-02-26T07:48:34;-21598.56;;;16.91;52.94
7337;BME280;54510;42.016;23.098;2023-02-26T07:51:01;-21602.69;;;17.07;52.14
7337;BME280;54510;42.016;23.098;2023-02-26T07:53:26;-21600.75;;;16.99;51.82
7337;BME280;54510;42.016;23.098;2023-02-26T07:55:52;-21598.28;;;16.90;52.98
7337;BME280;54510;42.016;23.098;2023-02-26T07:58:17;-21602.69;;;17.07;52.14
7337;BME280;54510;42.016;23.098;2023-02-26T08:00:43;-21603.78;;;17.11;51.08
7337;BME280;54510;42.016;23.098;2023-02-26T08:03:09;-21606.81;;;17.22;51.06
7337;BME280;54510;42.016;23.098;2023-02-26T08:05:34;-21607.94;;;17.26;52.00
7337;BME280;54510;42.016;23.098;2023-02-26T08:08:00;-21608.06;;;17.26;51.27
7337;BME280;54510;42.016;23.098;2023-02-26T08:10:28;-21615.22;;;17.53;50.31
7337;BME280;54510;42.016;23.098;2023-02-26T08:12:53;-21616.19;;;17.56;49.82
7337;BME280;54510;42.016;23.098;2023-02-26T08:15:19;-21621.56;;;17.76;50.46
7337;BME280;54510;42.016;23.098;2023-02-26T08:17:44;-21620.44;;;17.72;49.18
7337;BME280;54510;42.016;23.098;2023-02-26T08:20:10;-21620.59;;;17.72;50.17
7337;BME280;54510;42.016;23.098;2023-02-26T08:22:36;-21620.44;;;17.72;49.23
7337;BME280;54510;42.016;23.098;2023-02-26T08:25:02;-21621.97;;;17.77;49.26
7337;BME280;54510;42.016;23.098;2023-02-26T08:27:27;-21619.22;;;17.67;49.58
7337;BME280;54510;42.016;23.098;2023-02-26T08:29:53;-21619.91;;;17.70;49.35
7337;BME280;54510;42.016;23.098;2023-02-26T08:32:18;-21627.75;;;17.99;49.06
7337;BME280;54510;42.016;23.098;2023-02-26T08:34:45;-21620.19;;;17.71;48.69
7337;BME280;54510;42.016;23.098;2023-02-26T08:37:11;-21623.88;;;17.85;49.09
7337;BME280;54510;42.016;23.098;2023-02-26T08:39:38;-21623.63;;;17.84;48.71
7337;BME280;54510;42.016;23.098;2023-02-26T08:42:05;-21619.22;;;17.67;48.79
7337;BME280;54510;42.016;23.098;2023-02-26T08:44:31;-21622.25;;;17.79;48.92
7337;BME280;54510;42.016;23.098;2023-02-26T08:46:56;-21627.47;;;17.98;48.80
7337;BME280;54510;42.016;23.098;2023-02-26T08:49:22;-21627.88;;;17.99;48.26
7337;BME280;54510;42.016;23.098;2023-02-26T08:51:47;-21623.63;;;17.84;48.47
7337;BME280;54510;42.016;23.098;2023-02-26T08:54:13;-21624.72;;;17.88;48.23
7337;BME280;54510;42.016;23.098;2023-02-26T08:56:38;-21623.47;;;17.83;48.68
7337;BME280;54510;42.016;23.098;2023-02-26T08:59:03;-21623.88;;;17.85;48.07
7337;BME280;54510;42.016;23.098;2023-02-26T09:01:29;-21625.41;;;17.90;48.06
7337;BME280;54510;42.016;23.098;2023-02-26T09:03:54;-21628.16;;;18.00;47.40
7337;BME280;54510;42.016;23.098;2023-02-26T09:06:20;-21631.72;;;18.13;47.58
7337;BME280;54510;42.016;23.098;2023-02-26T09:08:46;-21629.81;;;18.06;47.92
7337;BME280;54510;42.016;23.098;2023-02-26T09:11:11;-21629.94;;;18.07;47.96
7337;BME280;54510;42.016;23.098;2023-02-26T09:13:37;-21636.41;;;18.31;47.13
7337;BME280;54510;42.016;23.098;2023-02-26T09:16:02;-21639.84;;;18.43;47.91
7337;BME280;54510;42.016;23.098;2023-02-26T09:18:28;-21637.22;;;18.34;47.76
7337;BME280;54510;42.016;23.098;2023-02-26T09:20:54;-21638.59;;;18.39;47.35
7337;BME280;54510;42.016;23.098;2023-02-26T09:23:20;-21634.63;;;18.24;47.43
7337;BME280;54510;42.016;23.098;2023-02-26T09:25:45;-21634.63;;;18.24;46.67
7337;BME280;54510;42.016;23.098;2023-02-26T09:28:11;-21641.22;;;18.48;46.65
7337;BME280;54510;42.016;23.098;2023-02-26T09:30:36;-21641.75;;;18.50;46.07
7337;BME280;54510;42.016;23.098;2023-02-26T09:33:02;-21644.38;;;18.60;45.48
7337;BME280;54510;42.016;23.098;2023-02-26T09:35:27;-21649.19;;;18.78;45.23
7337;BME280;54510;42.016;23.098;2023-02-26T09:37:53;-21643.41;;;18.57;45.32
7337;BME280;54510;42.016;23.098;2023-02-26T09:40:29;-21647.81;;;18.73;47.09
7337;BME280;54510;42.016;23.098;2023-02-26T09:43:07;-21652.75;;;18.91;47.99
7337;BME280;54510;42.016;23.098;2023-02-26T09:45:39;-21649.31;;;18.78;46.34
7337;BME280;54510;42.016;23.098;2023-02-26T09:48:06;-21642.72;;;18.54;47.38
7337;BME280;54510;42.016;23.098;2023-02-26T09:50:43;-21651.66;;;18.87;46.85
7337;BME280;54510;42.016;23.098;2023-02-26T09:53:17;-21649.31;;;18.78;48.79
7337;BME280;54510;42.016;23.098;2023-02-26T09:55:46;-21645.88;;;18.66;47.18
7337;BME280;54510;42.016;23.098;2023-02-26T09:58:34;-21642.59;;;18.53;47.55
7337;BME280;54510;42.016;23.098;2023-02-26T10:06:27;-21647.66;;;18.72;47.42
7337;BME280;54510;42.016;23.098;2023-02-26T10:14:33;-21657.28;;;19.08;46.64
7337;BME280;54510;42.016;23.098;2023-02-26T10:17:05;-21654.41;;;18.97;46.99
7337;BME280;54510;42.016;23.098;2023-02-26T10:19:37;-21657.84;;;19.10;46.62
7337;BME280;54510;42.016;23.098;2023-02-26T10:22:16;-21654.13;;;18.96;47.07
7337;BME280;54510;42.016;23.098;2023-02-26T10:24:53;-21660.44;;;19.19;46.78
7337;BME280;54510;42.016;23.098;2023-02-26T10:27:29;-21666.22;;;19.41;46.63
7337;BME280;54510;42.016;23.098;2023-02-26T10:30:03;-21658.09;;;19.11;46.54
7337;BME280;54510;42.016;23.098;2023-02-26T10:32:42;-21660.31;;;19.19;46.38
7337;BME280;54510;42.016;23.098;2023-02-26T10:35:14;-21661.28;;;19.22;46.13
7337;BME280;54510;42.016;23.098;2023-02-26T10:37:57;-21665.94;;;19.40;45.94
7337;BME280;54510;42.016;23.098;2023-02-26T10:40:32;-21665.66;;;19.39;46.02
7337;BME280;54510;42.016;23.098;2023-02-26T10:43:03;-21659.50;;;19.16;45.99
7337;BME280;54510;42.016;23.098;2023-02-26T10:45:52;-21661.94;;;19.25;45.63
7337;BME280;54510;42.016;23.098;2023-02-26T10:51:14;-21670.59;;;19.57;44.71
7337;BME280;54510;42.016;23.098;2023-02-26T10:54:05;-21668.56;;;19.49;44.83
7337;BME280;54510;42.016;23.098;2023-02-26T10:56:37;-21665.53;;;19.38;44.83
7337;BME280;54510;42.016;23.098;2023-02-26T10:59:05;-21657.69;;;19.09;45.39
7337;BME280;54510;42.016;23.098;2023-02-26T11:01:31;-21652.22;;;18.89;45.74
7337;BME280;54510;42.016;23.098;2023-02-26T11:06:39;-21661.81;;;19.24;45.54
7337;BME280;54510;42.016;23.098;2023-02-26T11:09:24;-21655.22;;;19.00;45.82
7337;BME280;54510;42.016;23.098;2023-02-26T11:11:56;-21651.25;;;18.85;46.40
7337;BME280;54510;42.016;23.098;2023-02-26T11:14:25;-21653.59;;;18.94;46.34
7337;BME280;54510;42.016;23.098;2023-02-26T11:16:54;-21660.44;;;19.19;45.77
7337;BME280;54510;42.016;23.098;2023-02-26T11:19:30;-21660.44;;;19.19;45.85
7337;BME280;54510;42.016;23.098;2023-02-26T11:21:58;-21660.16;;;19.18;45.79
7337;BME280;54510;42.016;23.098;2023-02-26T11:24:36;-21656.31;;;19.04;46.23
7337;BME280;54510;42.016;23.098;2023-02-26T11:27:10;-21651.25;;;18.85;46.40
7337;BME280;54510;42.016;23.098;2023-02-26T11:29:39;-21664.84;;;19.36;45.80
7337;BME280;54510;42.016;23.098;2023-02-26T11:32:06;-21657.97;;;19.10;46.31
7337;BME280;54510;42.016;23.098;2023-02-26T11:34:45;-21665.94;;;19.40;46.08
7337;BME280;54510;42.016;23.098;2023-02-26T11:37:11;-21656.06;;;19.03;46.67
7337;BME280;54510;42.016;23.098;2023-02-26T11:39:41;-21649.59;;;18.79;47.25
7337;BME280;54510;42.016;23.098;2023-02-26T11:42:08;-21660.16;;;19.18;46.71
7337;BME280;54510;42.016;23.098;2023-02-26T11:44:42;-21658.53;;;19.12;46.58
7337;BME280;54510;42.016;23.098;2023-02-26T11:47:16;-21654.28;;;18.97;46.61
7337;BME280;54510;42.016;23.098;2023-02-26T11:49:48;-21664.56;;;19.34;46.36
7337;BME280;54510;42.016;23.098;2023-02-26T11:52:19;-21665.53;;;19.38;46.12
7337;BME280;54510;42.016;23.098;2023-02-26T11:54:46;-21670.06;;;19.55;45.58
7337;BME280;54510;42.016;23.098;2023-02-26T11:57:18;-21659.75;;;19.17;45.54
7337;BME280;54510;42.016;23.098;2023-02-26T11:59:50;-21663.59;;;19.31;44.91
7337;BME280;54510;42.016;23.098;2023-02-26T12:02:22;-21662.63;;;19.27;45.06
7337;BME280;54510;42.016;23.098;2023-02-26T12:04:51;-21669.38;;;19.52;44.52
7337;BME280;54510;42.016;23.098;2023-02-26T12:07:18;-21659.63;;;19.16;44.66
7337;BME280;54510;42.016;23.098;2023-02-26T12:09:45;-21667.03;;;19.44;44.33
7337;BME280;54510;42.016;23.098;2023-02-26T12:17:25;-21666.91;;;19.43;43.80
7337;BME280;54510;42.016;23.098;2023-02-26T12:31:05;-21673.63;;;19.68;43.21
7337;BME280;54510;42.016;23.098;2023-02-26T12:36:30;-21667.31;;;19.45;43.12
7337;BME280;54510;42.016;23.098;2023-02-26T12:41:56;-21671.97;;;19.62;43.21
7337;BME280;54510;42.016;23.098;2023-02-26T12:44:52;-21677.88;;;19.84;42.31
7337;BME280;54510;42.016;23.098;2023-02-26T12:47:48;-21675.28;;;19.74;42.25
7337;BME280;54510;42.016;23.098;2023-02-26T13:06:24;-21659.91;;;19.17;42.33
7337;BME280;54510;42.016;23.098;2023-02-26T13:12:00;-21660.84;;;19.21;42.37
7337;BME280;54510;42.016;23.098;2023-02-26T13:17:25;-21655.91;;;19.03;42.24
7337;BME280;54510;42.016;23.098;2023-02-26T13:19:57;-21658.66;;;19.13;42.07
7337;BME280;54510;42.016;23.098;2023-02-26T13:22:38;-21657.16;;;19.07;41.80
7337;BME280;54510;42.016;23.098;2023-02-26T13:27:56;-21656.19;;;19.04;42.77
7337;BME280;54510;42.016;23.098;2023-02-26T13:32:52;-21657.84;;;19.10;43.00
7337;BME280;54510;42.016;23.098;2023-02-26T13:35:25;-21660.16;;;19.18;42.81
7337;BME280;54510;42.016;23.098;2023-02-26T13:37:55;-21654.69;;;18.98;43.75
7337;BME280;54510;42.016;23.098;2023-02-26T13:40:42;-21657.44;;;19.08;43.22
7337;BME280;54510;42.016;23.098;2023-02-26T13:49:03;-21642.31;;;18.52;44.50
7337;BME280;54510;42.016;23.098;2023-02-26T13:51:40;-21639.28;;;18.41;44.79
7337;BME280;54510;42.016;23.098;2023-02-26T13:54:27;-21641.47;;;18.49;44.78
7337;BME280;54510;42.016;23.098;2023-02-26T13:57:33;-21646.44;;;18.68;44.33
7337;BME280;54510;42.016;23.098;2023-02-26T13:59:48;-21647.25;;;18.71;44.39
7337;BME280;54510;42.016;23.098;2023-02-26T14:04:52;-21640.25;;;18.45;44.65
7337;BME280;54510;42.016;23.098;2023-02-26T14:07:46;-21639.84;;;18.43;44.76
7337;BME280;54510;42.016;23.098;2023-02-26T14:10:28;-21634.19;;;18.23;45.50
7337;BME280;54510;42.016;23.098;2023-02-26T14:13:22;-21631.88;;;18.14;45.60
7337;BME280;54510;42.016;23.098;2023-02-26T14:19:18;-21629.13;;;18.04;45.82
7337;BME280;54510;42.016;23.098;2023-02-26T14:21:52;-21631.72;;;18.13;45.72
7337;BME280;54510;42.016;23.098;2023-02-26T14:24:36;-21634.63;;;18.24;45.43
7337;BME280;54510;42.016;23.098;2023-02-26T14:29:42;-21628.28;;;18.01;46.08
7337;BME280;54510;42.016;23.098;2023-02-26T14:34:39;-21634.75;;;18.25;45.87
7337;BME280;54510;42.016;23.098;2023-02-26T14:37:07;-21634.06;;;18.22;45.89
7337;BME280;54510;42.016;23.098;2023-02-26T14:39:46;-21626.09;;;17.93;46.53
7337;BME280;54510;42.016;23.098;2023-02-26T14:42:31;-21630.22;;;18.08;46.72
7337;BME280;54510;42.016;23.098;2023-02-26T14:47:45;-21625.41;;;17.90;47.27
7337;BME280;54510;42.016;23.098;2023-02-26T14:50:22;-21625.81;;;17.92;47.32
7337;BME280;54510;42.016;23.098;2023-02-26T14:58:50;-21635.16;;;18.26;46.53
7337;BME280;54510;42.016;23.098;2023-02-26T15:07:02;-21638.19;;;18.37;46.31
7337;BME280;54510;42.016;23.098;2023-02-26T15:20:20;-21629.94;;;18.07;46.20